Topsail Beach, NC

10:20 AM EDT on April 27, 2015 (GMT -0400)
New River Marine Corps Air Station | | Change Station
CLOSE
Current Station
Airport
Location: New River MCAS,
Elevation: 26 ft
Nearby Weather Stations

Elev 26 ft 34.71 °N, 77.44 °W | Updated 24 minutes ago

Clear
Clear
60 °F
Feels Like 60 °F
N
9
Wind Variable Wind from NNW

Today
High -- | Low -- °F
--% Chance of Precip.
Yesterday
High -- | Low -- °F
Precip. -- in
6:24 AM 7:51 PM
Waxing Gibbous, 65% visible
Pressure 29.82 in
Visibility 10.0 miles
Clouds Clear
Dew Point 45 °F
Humidity 57%
Rainfall 0.00 in
Snow Depth Not available.
UV 6 out of 12
Pollen 9.00 out of 12
Air Quality Not available.
Flu Activity Sporadic
METAR KNCA 271356Z AUTO 34008KT 10SM CLR 16/07 A2981 RMK AO2 SLP098 T01560072

More Conditions Fewer Conditions

Pressure 29.82 in
Visibility 10.0 miles
Clouds Clear
Dew Point 45 °F
Humidity 57%
Rainfall 0.00 in
Snow Depth Not available.
UV 6 out of 12
Pollen 9.00 out of 12
Air Quality Not available.
Flu Activity Sporadic
METAR KNCA 271356Z AUTO 34008KT 10SM CLR 16/07 A2981 RMK AO2 SLP098 T01560072

More Conditions Fewer Conditions

10-Day Weather Forecast

Almanac

Astronomy

Apr. 27, 2015 Rise Set
Actual Time
Civil Twilight
Nautical Twilight
Astronomical Twilight
Moon
Length of Visible Light
Length of Day
Tomorrow will be .
, % of the Moon is Illuminated

Today's Extremes

State Highs State Lows

Community

WunderPhotos

Upload Photos

1,817,319 photos uploaded!

WunderBlogs® & News

Nearby

Air Quality

  Air Quality AQ Index Pollutant
Not available.

Snow Depth

Station Depth Elevation

Earthquake Activity

City Distance Mag. Time & Date
Minimum magnitude displayed is 2.5.

Coastal Water Temperatures

Place Temperature

Stations

Nearby Weather Stations

Station Location Temp. Windchill Dew Point Humidity Wind Precip. Elev Updated Type